Time;durP1;ratioP1;P1;durP2;ratioP2;P2;SDS_P1;SDS_P2;PMS_P1;PMS_P2;Temp;Humidity;BMP_temperature;BMP_pressure;BME280_temperature;BME280_humidity;BME280_pressure;Samples;Min_cycle;Max_cycle;Signal;HPM_P1;HPM_P2
2021/05/05 00:00:15;;;;;;;4.03;1.90;;;;;;;13.01;43.60;95616.67;1702186;83;21164;-79
2021/05/05 00:02:45;;;;;;;4.35;2.20;;;;;;;12.98;43.63;95606.67;1735878;81;21193;-79
2021/05/05 00:05:14;;;;;;;2.02;1.65;;;;;;;12.93;43.83;95610.81;1699117;83;21179;-79
2021/05/05 00:07:42;;;;;;;1.77;1.27;;;;;;;12.89;43.77;95605.91;1700061;82;22153;-79
2021/05/05 00:10:12;;;;;;;3.02;2.10;;;;;;;12.85;43.85;95593.02;1691648;82;21127;-79
2021/05/05 00:12:41;;;;;;;3.65;2.20;;;;;;;12.83;44.12;95607.73;1707683;83;21124;-79
2021/05/05 00:15:21;;;;;;;3.70;1.67;;;;;;;12.77;44.12;95599.91;1701062;82;21216;-79
2021/05/05 00:17:48;;;;;;;3.25;1.65;;;;;;;12.77;44.15;95599.12;1694055;81;21491;-79
2021/05/05 00:20:17;;;;;;;2.87;1.72;;;;;;;12.73;44.33;95589.67;1697704;83;21205;-79
2021/05/05 00:22:44;;;;;;;3.20;2.02;;;;;;;12.72;44.55;95590.77;1696671;83;21164;-79
2021/05/05 00:25:12;;;;;;;3.50;2.30;;;;;;;12.77;44.47;95596.47;1689981;84;21131;-79
2021/05/05 00:27:40;;;;;;;3.75;2.10;;;;;;;12.75;44.53;95588.02;1677602;83;21498;-79
2021/05/05 00:30:11;;;;;;;3.42;1.72;;;;;;;12.72;44.43;95584.67;1708163;82;21172;-79
2021/05/05 00:32:39;;;;;;;2.58;2.12;;;;;;;12.66;44.75;95592.02;1713449;82;21196;-79
2021/05/05 00:35:09;;;;;;;2.98;1.92;;;;;;;12.68;44.85;95579.77;1693702;82;21111;-79
2021/05/05 00:37:36;;;;;;;2.85;1.55;;;;;;;12.63;45.09;95580.69;1712205;82;21216;-80
2021/05/05 00:40:05;;;;;;;3.65;2.10;;;;;;;12.59;45.26;95572.34;1707607;82;21196;-79
2021/05/05 00:42:33;;;;;;;2.58;1.95;;;;;;;12.55;45.21;95575.41;1707147;83;21215;-79
2021/05/05 00:45:04;;;;;;;5.25;2.12;;;;;;;12.55;45.35;95568.21;1713560;82;21557;-79
2021/05/05 00:47:32;;;;;;;2.42;1.90;;;;;;;12.56;45.29;95567.11;1714401;82;21143;-79
2021/05/05 00:49:59;;;;;;;2.25;1.75;;;;;;;12.57;45.36;95574.55;1716382;82;21188;-79
2021/05/05 00:52:27;;;;;;;3.00;1.72;;;;;;;12.61;45.43;95558.96;1724074;82;21532;-79
2021/05/05 00:54:54;;;;;;;2.10;1.80;;;;;;;12.67;45.51;95558.27;1727298;81;21129;-79
2021/05/05 00:57:23;;;;;;;2.25;1.80;;;;;;;12.68;45.52;95567.25;1713462;82;21975;-79
2021/05/05 00:59:50;;;;;;;3.20;1.80;;;;;;;12.64;45.71;95559.66;1710179;82;21154;-79
2021/05/05 01:02:18;;;;;;;3.12;1.85;;;;;;;12.67;45.52;95561.70;1716624;82;21188;-79
2021/05/05 01:04:45;;;;;;;4.40;1.98;;;;;;;12.73;45.41;95564.41;1715924;82;21539;-79
2021/05/05 01:07:13;;;;;;;2.20;1.90;;;;;;;12.79;45.45;95559.14;1718351;82;21184;-79
2021/05/05 01:09:46;;;;;;;3.08;1.85;;;;;;;12.75;45.44;95557.44;1709192;82;21158;-79
2021/05/05 01:12:15;;;;;;;2.47;1.77;;;;;;;12.75;45.73;95546.25;1698020;82;21130;-79
2021/05/05 01:14:42;;;;;;;2.40;1.60;;;;;;;12.78;45.26;95554.92;1717657;82;21132;-79
2021/05/05 01:17:10;;;;;;;5.62;2.35;;;;;;;12.82;45.34;95542.34;1717728;82;21104;-79
2021/05/05 01:19:37;;;;;;;3.85;1.70;;;;;;;12.85;45.48;95558.98;1711588;82;21480;-79
2021/05/05 01:22:04;;;;;;;3.08;1.98;;;;;;;12.81;45.59;95556.71;1718126;82;21506;-79
2021/05/05 01:24:35;;;;;;;1.92;1.70;;;;;;;12.78;45.55;95556.80;1693258;82;21147;-79
2021/05/05 01:27:06;;;;;;;5.80;2.05;;;;;;;12.78;45.54;95556.80;1681496;84;21522;-79
2021/05/05 01:29:36;;;;;;;3.37;2.35;;;;;;;12.76;45.52;95550.47;1685367;83;21545;-79
2021/05/05 01:32:06;;;;;;;2.70;2.02;;;;;;;12.81;45.39;95549.55;1696631;83;21132;-79
2021/05/05 01:34:34;;;;;;;3.20;2.17;;;;;;;12.78;45.64;95544.83;1695791;83;21136;-79
2021/05/05 01:37:03;;;;;;;2.75;1.95;;;;;;;12.75;45.48;95543.59;1697009;84;21159;-79
2021/05/05 01:39:30;;;;;;;2.98;2.08;;;;;;;12.76;45.65;95545.16;1700501;83;21186;-79
2021/05/05 01:41:58;;;;;;;3.25;2.08;;;;;;;12.71;45.84;95547.99;1695473;83;21215;-79
2021/05/05 01:44:38;;;;;;;5.75;2.00;;;;;;;12.68;45.67;95543.31;1696887;84;21514;-79
2021/05/05 01:47:13;;;;;;;2.27;1.60;;;;;;;12.71;45.79;95541.90;1695830;83;21511;-79
2021/05/05 01:49:46;;;;;;;5.30;2.37;;;;;;;12.69;45.74;95546.75;1698342;83;21135;-79
2021/05/05 01:52:15;;;;;;;2.30;1.60;;;;;;;12.66;45.88;95542.83;1697695;84;21203;-79
2021/05/05 01:54:42;;;;;;;2.30;2.00;;;;;;;12.63;46.10;95540.03;1707156;83;21194;-77
2021/05/05 01:57:33;;;;;;;3.65;1.80;;;;;;;12.59;46.05;95540.44;1698744;83;21209;-79
2021/05/05 02:00:01;;;;;;;;;;;;;;;12.61;46.25;95536.91;1692669;83;21193;-79
2021/05/05 02:02:30;;;;;;;2.58;1.75;;;;;;;12.67;45.95;95533.78;1709716;83;20214;-79
2021/05/05 02:04:58;;;;;;;1.98;1.25;;;;;;;12.73;45.94;95541.03;1701981;83;21161;-79
2021/05/05 02:07:26;;;;;;;2.47;1.80;;;;;;;12.75;45.80;95540.16;1691992;83;21532;-79
2021/05/05 02:09:53;;;;;;;3.05;1.92;;;;;;;12.72;45.84;95530.16;1702823;83;21550;-79
2021/05/05 02:12:21;;;;;;;4.35;2.20;;;;;;;12.70;46.00;95543.78;1730609;81;21543;-79
2021/05/05 02:14:48;;;;;;;3.83;1.85;;;;;;;12.69;46.07;95541.44;1731121;81;21158;-79
2021/05/05 02:17:17;;;;;;;2.52;2.00;;;;;;;12.64;46.10;95533.61;1730277;81;21153;-79
2021/05/05 02:19:45;;;;;;;2.95;2.22;;;;;;;12.64;46.19;95541.59;1667379;85;21620;-79
2021/05/05 02:22:12;;;;;;;3.05;2.02;;;;;;;12.63;46.27;95540.81;1667483;84;21200;-79
2021/05/05 02:24:40;;;;;;;4.08;2.00;;;;;;;12.63;46.37;95542.14;1734211;81;21138;-79
2021/05/05 02:27:08;;;;;;;5.05;2.52;;;;;;;12.59;46.48;95538.56;1721217;81;21106;-78
2021/05/05 02:29:35;;;;;;;6.35;2.62;;;;;;;12.55;46.57;95529.66;1666361;84;21143;-79
2021/05/05 02:32:08;;;;;;;6.40;2.20;;;;;;;12.51;46.88;95529.27;1684634;83;21523;-79
2021/05/05 02:34:37;;;;;;;2.65;2.20;;;;;;;12.47;46.84;95531.78;1667432;84;21530;-79
2021/05/05 02:37:09;;;;;;;2.85;2.37;;;;;;;12.43;47.23;95522.88;1672366;84;21570;-79
2021/05/05 02:39:41;;;;;;;3.70;2.10;;;;;;;12.40;46.90;95524.85;1674449;84;21123;-79
2021/05/05 02:42:13;;;;;;;2.30;1.67;;;;;;;12.43;46.87;95521.00;1677470;84;21491;-79
2021/05/05 02:44:42;;;;;;;3.05;1.72;;;;;;;12.48;46.88;95515.52;1676550;84;21138;-79
2021/05/05 02:47:09;;;;;;;2.02;1.80;;;;;;;12.47;46.75;95516.61;1688001;83;21515;-79
2021/05/05 02:49:36;;;;;;;3.58;1.92;;;;;;;12.51;46.77;95502.68;1677656;84;21176;-79
2021/05/05 02:52:04;;;;;;;2.37;1.85;;;;;;;12.55;46.36;95510.27;1671626;84;21146;-79
2021/05/05 02:54:31;;;;;;;4.28;2.02;;;;;;;12.55;46.67;95512.94;1699635;83;21100;-79
2021/05/05 02:56:59;;;;;;;2.83;1.75;;;;;;;12.53;46.59;95511.11;1676045;84;21165;-79
2021/05/05 02:59:26;;;;;;;2.80;2.05;;;;;;;12.52;46.43;95514.88;1676295;84;21143;-79
2021/05/05 03:01:56;;;;;;;2.17;1.67;;;;;;;12.54;46.50;95513.48;1666219;84;21162;-79
2021/05/05 03:04:26;;;;;;;4.95;2.45;;;;;;;12.46;47.09;95515.05;1669329;85;21562;-79
2021/05/05 03:06:55;;;;;;;6.55;2.00;;;;;;;12.39;47.23;95516.65;1677485;84;21161;-79
2021/05/05 03:09:25;;;;;;;2.95;1.90;;;;;;;12.32;47.48;95511.02;1693890;83;21184;-79
2021/05/05 03:11:55;;;;;;;4.12;1.95;;;;;;;12.30;47.49;95518.53;1693803;83;21198;-79
2021/05/05 03:14:28;;;;;;;2.67;1.85;;;;;;;12.29;47.49;95515.09;1683452;84;21154;-79
2021/05/05 03:16:58;;;;;;;3.15;2.17;;;;;;;12.24;47.92;95514.45;1680944;84;21143;-79
2021/05/05 03:19:25;;;;;;;2.80;2.12;;;;;;;12.17;48.04;95513.63;1686319;83;21187;-79
2021/05/05 03:21:52;;;;;;;5.00;2.40;;;;;;;12.15;48.13;95510.50;1674152;84;21217;-79
2021/05/05 03:24:20;;;;;;;2.67;2.22;;;;;;;12.10;48.42;95519.94;1679409;83;21515;-79
2021/05/05 03:26:46;;;;;;;5.95;2.52;;;;;;;12.09;48.38;95501.11;1711462;82;21118;-79
2021/05/05 03:29:13;;;;;;;4.33;2.52;;;;;;;12.13;48.18;95515.35;1696085;83;21112;-79
2021/05/05 03:31:40;;;;;;;4.80;2.10;;;;;;;12.14;48.18;95502.30;1725022;81;21111;-79
2021/05/05 03:34:08;;;;;;;3.65;1.80;;;;;;;12.16;48.08;95506.75;1692922;83;21140;-80
2021/05/05 03:36:35;;;;;;;2.45;1.67;;;;;;;12.17;47.71;95502.45;1717443;82;21132;-79
2021/05/05 03:39:05;;;;;;;2.45;1.05;;;;;;;12.27;47.70;95501.34;1696353;84;21178;-79
2021/05/05 03:41:32;;;;;;;2.12;1.30;;;;;;;12.32;47.17;95502.50;1693471;83;21124;-79
2021/05/05 03:43:59;;;;;;;3.25;1.75;;;;;;;12.43;46.92;95498.41;1709530;81;21487;-79
2021/05/05 03:46:26;;;;;;;2.75;1.60;;;;;;;12.56;46.37;95502.53;1692214;83;21144;-79
2021/05/05 03:48:54;;;;;;;3.75;1.80;;;;;;;12.64;46.06;95497.72;1722331;81;21114;-79
2021/05/05 03:51:21;;;;;;;2.62;1.25;;;;;;;12.70;46.15;95493.80;1683973;84;21667;-79
2021/05/05 03:53:48;;;;;;;1.75;1.30;;;;;;;12.75;45.48;95498.94;1726150;81;21160;-80
2021/05/05 03:56:15;;;;;;;2.77;1.85;;;;;;;12.79;45.44;95499.30;1693526;83;21515;-79
2021/05/05 03:58:43;;;;;;;3.35;2.05;;;;;;;12.81;45.57;95510.97;1697799;84;21152;-79
2021/05/05 04:01:09;;;;;;;3.08;2.02;;;;;;;12.74;46.15;95506.69;1715649;82;21122;-79
2021/05/05 04:03:36;;;;;;;3.35;2.00;;;;;;;12.67;46.56;95509.85;1688689;83;21177;-79
2021/05/05 04:06:04;;;;;;;3.65;2.17;;;;;;;12.59;46.84;95507.20;1714864;82;21160;-79
2021/05/05 04:08:30;;;;;;;3.30;2.17;;;;;;;12.49;47.22;95506.44;1723522;82;21463;-79
2021/05/05 04:10:58;;;;;;;4.05;2.12;;;;;;;12.40;47.29;95502.26;1719685;82;21567;-79
2021/05/05 04:13:25;;;;;;;4.75;2.08;;;;;;;12.37;47.43;95500.21;1694136;84;21214;-79
2021/05/05 04:15:52;;;;;;;3.45;1.65;;;;;;;12.36;47.46;95498.65;1718302;82;21119;-78
2021/05/05 04:18:20;;;;;;;3.25;2.12;;;;;;;12.41;47.74;95505.15;1692135;83;21503;-78
2021/05/05 04:20:48;;;;;;;4.22;1.77;;;;;;;12.41;47.61;95498.50;1729836;81;21093;-78
2021/05/05 04:23:15;;;;;;;2.30;1.60;;;;;;;12.38;47.43;95503.87;1715692;82;21159;-78
2021/05/05 04:25:42;;;;;;;2.25;1.87;;;;;;;12.42;47.78;95510.14;1694296;83;21137;-79
2021/05/05 04:28:10;;;;;;;2.55;1.77;;;;;;;12.38;47.42;95505.20;1696346;83;21167;-78
2021/05/05 04:30:37;;;;;;;3.02;1.95;;;;;;;12.47;47.47;95511.30;1740383;81;21113;-79
2021/05/05 04:33:04;;;;;;;3.45;1.70;;;;;;;12.51;47.30;95502.13;1739581;81;21245;-78
2021/05/05 04:35:31;;;;;;;2.92;1.60;;;;;;;12.56;46.87;95487.91;1736762;81;21476;-78
2021/05/05 04:37:58;;;;;;;2.02;1.42;;;;;;;12.64;46.49;95499.05;1734375;81;21146;-79
2021/05/05 04:40:25;;;;;;;4.67;2.00;;;;;;;12.68;46.27;95501.33;1738875;81;21470;-79
2021/05/05 04:42:52;;;;;;;3.58;1.80;;;;;;;12.72;46.57;95499.58;1743119;81;21149;-79
2021/05/05 04:45:20;;;;;;;3.75;1.75;;;;;;;12.73;46.71;95502.47;1734617;81;21131;-79
2021/05/05 04:47:47;;;;;;;3.17;1.85;;;;;;;12.71;46.89;95512.09;1734260;81;21118;-79
2021/05/05 04:50:14;;;;;;;4.37;2.10;;;;;;;12.69;47.29;95501.55;1732080;81;21154;-79
2021/05/05 04:52:41;;;;;;;4.47;2.33;;;;;;;12.68;46.81;95503.43;1736579;81;21563;-79
2021/05/05 04:55:09;;;;;;;3.60;1.62;;;;;;;12.69;47.10;95508.20;1742339;81;21541;-79
2021/05/05 04:57:36;;;;;;;2.20;1.80;;;;;;;12.68;47.46;95506.64;1742791;81;21170;-79
2021/05/05 05:00:07;;;;;;;3.42;2.35;;;;;;;12.65;47.46;95504.05;1744794;81;21160;-79
2021/05/05 05:02:34;;;;;;;;;;;;;;;12.63;47.76;95510.78;1730335;81;21199;-79
2021/05/05 05:05:04;;;;;;;3.22;2.08;;;;;;;12.62;47.79;95508.67;1739387;81;20241;-79
2021/05/05 05:07:32;;;;;;;4.05;2.20;;;;;;;12.64;47.49;95510.46;1730406;81;21558;-79
2021/05/05 05:10:00;;;;;;;3.40;2.02;;;;;;;12.71;47.31;95510.77;1736407;81;21141;-79
2021/05/05 05:12:27;;;;;;;2.37;2.00;;;;;;;12.76;47.50;95505.81;1750691;81;21252;-79
2021/05/05 05:14:54;;;;;;;6.50;2.05;;;;;;;12.79;47.20;95514.48;1736954;81;21118;-79
2021/05/05 05:17:22;;;;;;;2.30;1.98;;;;;;;12.79;47.52;95511.81;1741316;81;21106;-80
2021/05/05 05:19:49;;;;;;;3.20;2.15;;;;;;;12.78;47.09;95520.90;1744782;81;21490;-80
2021/05/05 05:22:18;;;;;;;4.67;2.10;;;;;;;12.83;47.70;95518.63;1740734;81;21641;-80
2021/05/05 05:24:45;;;;;;;3.37;2.22;;;;;;;12.89;47.40;95523.45;1732465;81;21201;-80
2021/05/05 05:27:12;;;;;;;4.58;2.52;;;;;;;12.91;47.12;95519.91;1707544;81;21587;-80
2021/05/05 05:29:39;;;;;;;4.50;2.20;;;;;;;12.91;47.14;95523.91;1729263;81;21084;-79
2021/05/05 05:32:06;;;;;;;3.58;2.25;;;;;;;12.95;47.25;95515.53;1734863;81;21150;-79
2021/05/05 05:34:34;;;;;;;3.70;2.15;;;;;;;13.03;47.28;95517.36;1728011;81;21154;-79
2021/05/05 05:37:02;;;;;;;2.72;2.05;;;;;;;13.14;47.07;95513.02;1728336;81;21203;-79
2021/05/05 05:39:28;;;;;;;5.95;2.22;;;;;;;13.18;46.42;95521.91;1727536;81;21288;-80
2021/05/05 05:41:55;;;;;;;3.85;2.27;;;;;;;13.25;46.33;95518.23;1727497;81;21170;-79
2021/05/05 05:44:22;;;;;;;3.42;2.08;;;;;;;13.39;46.56;95526.77;1727832;82;21107;-81
2021/05/05 05:46:50;;;;;;;4.60;2.10;;;;;;;13.47;46.29;95519.27;1739406;81;21196;-77
2021/05/05 05:49:17;;;;;;;2.33;1.92;;;;;;;13.65;46.17;95519.93;1736670;81;21128;-77
2021/05/05 05:51:44;;;;;;;3.45;1.98;;;;;;;13.84;46.14;95530.16;1728029;81;21118;-77
2021/05/05 05:54:11;;;;;;;3.22;2.00;;;;;;;13.89;45.59;95525.95;1730959;81;21232;-78
2021/05/05 05:56:38;;;;;;;3.33;2.12;;;;;;;13.85;45.42;95517.06;1719264;81;21156;-78
2021/05/05 05:59:05;;;;;;;4.85;2.10;;;;;;;13.79;45.38;95519.68;1732553;81;21199;-77
2021/05/05 06:01:32;;;;;;;3.72;2.00;;;;;;;13.79;45.64;95525.00;1729625;81;21150;-78
2021/05/05 06:03:59;;;;;;;3.62;2.10;;;;;;;13.87;45.07;95516.19;1729919;81;21219;-77
2021/05/05 06:06:26;;;;;;;3.12;1.90;;;;;;;13.85;45.03;95521.06;1730787;81;21166;-77
2021/05/05 06:08:53;;;;;;;3.08;2.02;;;;;;;13.92;45.45;95519.42;1748125;81;21163;-78
2021/05/05 06:11:20;;;;;;;4.65;2.20;;;;;;;13.99;45.34;95520.80;1733752;81;21172;-78
2021/05/05 06:13:48;;;;;;;6.05;2.22;;;;;;;14.06;45.68;95516.48;1729800;81;21201;-78
2021/05/05 06:16:15;;;;;;;3.90;2.27;;;;;;;14.14;45.46;95508.20;1743218;81;21149;-78
2021/05/05 06:18:42;;;;;;;4.12;2.00;;;;;;;14.22;45.14;95503.36;1730760;81;21596;-78
2021/05/05 06:21:10;;;;;;;3.27;2.12;;;;;;;14.34;44.96;95501.27;1731073;81;21152;-78
2021/05/05 06:23:37;;;;;;;4.40;2.20;;;;;;;14.32;45.37;95504.27;1734497;81;21173;-78
2021/05/05 06:26:04;;;;;;;2.45;1.80;;;;;;;14.35;44.90;95502.27;1727423;81;21207;-78
2021/05/05 06:28:33;;;;;;;4.10;2.08;;;;;;;14.38;44.45;95490.97;1717265;82;21107;-78
2021/05/05 06:31:00;;;;;;;3.35;2.27;;;;;;;14.43;44.65;95495.30;1761180;80;21131;-78
2021/05/05 06:33:28;;;;;;;3.83;2.12;;;;;;;14.67;44.63;95492.72;1720735;81;21122;-78
2021/05/05 06:35:56;;;;;;;2.02;1.70;;;;;;;14.88;44.38;95489.18;1721474;81;21097;-78
2021/05/05 06:38:23;;;;;;;4.05;2.17;;;;;;;15.13;44.53;95482.74;1697946;83;21110;-78
2021/05/05 06:40:50;;;;;;;4.30;1.90;;;;;;;15.54;44.20;95483.59;1695537;83;21118;-78
2021/05/05 06:43:18;;;;;;;3.50;2.02;;;;;;;15.92;43.56;95476.52;1694949;83;21183;-78
2021/05/05 06:45:45;;;;;;;4.08;2.10;;;;;;;16.00;42.58;95467.56;1702485;83;21540;-78
2021/05/05 06:48:12;;;;;;;3.50;2.35;;;;;;;16.24;42.77;95466.69;1690714;83;21554;-78
2021/05/05 06:50:39;;;;;;;2.47;1.92;;;;;;;16.36;42.30;95458.60;1729115;81;21084;-78
2021/05/05 06:53:06;;;;;;;5.37;2.05;;;;;;;16.37;41.92;95462.83;1692873;84;21147;-79
2021/05/05 06:55:33;;;;;;;2.90;2.00;;;;;;;16.14;41.48;95457.81;1725377;81;21083;-78
2021/05/05 06:58:01;;;;;;;5.67;2.15;;;;;;;15.99;42.02;95456.09;1726316;82;21151;-79
2021/05/05 07:00:28;;;;;;;6.05;2.60;;;;;;;15.82;41.64;95465.73;1701137;83;21548;-78
2021/05/05 07:02:55;;;;;;;5.20;2.27;;;;;;;15.78;42.57;95461.42;1724829;82;21096;-78
2021/05/05 07:05:24;;;;;;;5.80;2.40;;;;;;;15.86;42.80;95454.58;1727069;82;21274;-78
2021/05/05 07:07:51;;;;;;;3.33;2.27;;;;;;;16.02;42.83;95451.39;1704146;83;21136;-79
2021/05/05 07:10:20;;;;;;;3.12;2.05;;;;;;;16.76;42.89;95445.67;1725267;81;21184;-79
2021/05/05 07:12:47;;;;;;;2.80;1.90;;;;;;;17.14;41.52;95445.02;1698868;83;21685;-79
2021/05/05 07:15:14;;;;;;;4.22;2.00;;;;;;;17.30;40.70;95437.73;1730545;81;21168;-79
2021/05/05 07:17:41;;;;;;;4.65;2.25;;;;;;;17.50;40.77;95441.23;1693117;83;21511;-79
2021/05/05 07:20:11;;;;;;;4.37;2.05;;;;;;;17.83;40.48;95445.38;1699352;82;21578;-79
2021/05/05 07:22:38;;;;;;;3.12;2.00;;;;;;;18.04;39.22;95437.76;1692213;83;21193;-79
2021/05/05 07:25:06;;;;;;;3.80;2.05;;;;;;;18.75;40.23;95435.02;1704380;82;21459;-79
2021/05/05 12:00:46;;;;;;;3.45;1.45;;;;;;;19.77;35.19;95135.70;1797824;78;22733;-78
2021/05/05 12:03:14;;;;;;;1.52;1.40;;;;;;;19.67;34.61;95135.03;1663375;84;21139;-79
2021/05/05 12:05:46;;;;;;;3.17;1.35;;;;;;;19.69;33.04;95116.61;1670128;84;21512;-78
2021/05/05 12:08:28;;;;;;;1.98;0.88;;;;;;;19.62;31.93;95146.14;1662684;84;21133;-79
2021/05/05 12:11:02;;;;;;;1.62;1.00;;;;;;;19.52;32.12;95138.92;1664921;84;21128;-79
2021/05/05 12:13:38;;;;;;;1.77;1.40;;;;;;;19.44;31.40;95144.05;1670470;84;21523;-79
2021/05/05 12:16:16;;;;;;;1.55;1.30;;;;;;;19.37;32.06;95135.91;1667715;84;21232;-79
2021/05/05 12:18:50;;;;;;;2.52;1.25;;;;;;;19.27;32.25;95133.31;1663457;84;21172;-79
2021/05/05 12:21:22;;;;;;;1.60;1.22;;;;;;;19.25;33.30;95137.52;1665401;84;21120;-78
2021/05/05 12:24:00;;;;;;;0.93;0.80;;;;;;;19.25;32.32;95134.26;1669538;84;21133;-78
2021/05/05 12:26:37;;;;;;;2.35;1.00;;;;;;;19.21;32.59;95125.97;1660947;84;21115;-77
2021/05/05 12:29:10;;;;;;;1.40;1.20;;;;;;;19.10;31.62;95117.80;1665532;84;21274;-77
2021/05/05 12:31:39;;;;;;;1.77;1.00;;;;;;;19.09;32.79;95120.86;1667630;84;21194;-79
2021/05/05 12:34:08;;;;;;;2.75;1.30;;;;;;;19.14;32.91;95125.89;1663794;84;21651;-77
2021/05/05 12:36:40;;;;;;;2.12;0.95;;;;;;;19.12;33.53;95129.52;1637861;86;21218;-79
2021/05/05 12:39:18;;;;;;;2.35;1.42;;;;;;;19.02;32.11;95111.41;1664340;84;21201;-79
2021/05/05 12:41:51;;;;;;;1.82;0.90;;;;;;;18.93;33.29;95115.71;1660443;84;21158;-78
2021/05/05 12:44:19;;;;;;;2.95;1.17;;;;;;;18.84;33.09;95115.98;1632591;86;21143;-79
2021/05/05 12:46:58;;;;;;;2.65;1.32;;;;;;;18.81;32.94;95104.65;1667930;84;21548;-80
2021/05/05 12:49:37;;;;;;;2.30;1.40;;;;;;;18.80;33.50;95111.16;1663269;84;21565;-80
2021/05/05 12:52:08;;;;;;;3.15;1.42;;;;;;;18.78;33.81;95110.76;1633306;86;21163;-80
2021/05/05 13:02:36;;;;;;;3.05;1.20;;;;;;;18.52;33.82;95112.92;1659335;85;21228;-80
2021/05/05 13:05:07;;;;;;;3.77;1.40;;;;;;;18.31;34.25;95140.27;1659646;85;21533;-80
2021/05/05 13:07:38;;;;;;;2.58;1.15;;;;;;;18.19;34.86;95160.59;1648300;85;21131;-81
2021/05/05 13:10:11;;;;;;;4.53;2.67;;;;;;;17.93;36.58;95140.48;1635075;85;21506;-80
2021/05/05 13:12:43;;;;;;;2.98;2.30;;;;;;;17.49;41.04;95218.06;1636412;86;21159;-80
2021/05/05 13:15:32;;;;;;;3.47;2.47;;;;;;;16.79;44.16;95224.17;1629152;86;21279;-80
2021/05/05 13:18:22;;;;;;;5.25;3.40;;;;;;;16.17;49.10;95260.59;1624827;86;21166;-80
2021/05/05 13:30:36;;;;;;;7.83;4.83;;;;;;;13.76;61.75;95273.95;1577670;89;21367;-80
2021/05/05 13:33:07;;;;;;;;;;;;;;;13.23;62.97;95322.14;1580847;89;21253;-80
2021/05/05 13:35:47;;;;;;;7.53;3.33;;;;;;;12.88;64.43;95356.97;1608226;86;20151;-80
2021/05/05 13:38:30;;;;;;;7.60;3.83;;;;;;;12.65;67.85;95367.66;1626422;86;21151;-80
2021/05/05 13:41:07;;;;;;;6.83;5.60;;;;;;;12.33;69.62;95351.24;1622927;86;21155;-80
2021/05/05 13:43:43;;;;;;;6.90;4.92;;;;;;;12.17;68.03;95356.86;1624948;86;21139;-80
2021/05/05 13:46:16;;;;;;;6.22;4.12;;;;;;;12.13;71.24;95370.56;1629075;86;21154;-80
2021/05/05 13:48:42;;;;;;;;;;;;;;;11.95;71.08;95388.95;1626064;86;21142;-80
2021/05/05 13:51:13;;;;;;;7.35;4.60;;;;;;;11.68;72.46;95400.13;1628234;86;20213;-80
2021/05/05 13:53:46;;;;;;;4.80;2.98;;;;;;;11.28;73.50;95416.79;1628848;86;21229;-80
2021/05/05 13:56:16;;;;;;;6.08;3.58;;;;;;;11.18;73.91;95395.31;1627026;86;21136;-80
2021/05/05 13:58:45;;;;;;;4.45;3.20;;;;;;;11.05;72.80;95398.89;1628116;86;21198;-80
2021/05/05 14:01:12;;;;;;;3.50;2.33;;;;;;;10.93;73.01;95394.73;1626868;86;21510;-80
2021/05/05 14:03:40;;;;;;;2.92;2.22;;;;;;;10.61;73.65;95408.62;1624444;86;21198;-80
2021/05/05 14:06:09;;;;;;;3.65;2.40;;;;;;;10.32;74.82;95416.30;1624046;87;21189;-79
2021/05/05 14:08:36;;;;;;;6.15;2.27;;;;;;;10.10;75.29;95425.81;1619947;87;21265;-80
2021/05/05 14:11:03;;;;;;;2.42;1.90;;;;;;;9.97;75.72;95434.62;1621473;87;21198;-80
2021/05/05 14:13:30;;;;;;;4.25;2.30;;;;;;;9.85;76.08;95431.73;1622588;87;21219;-80
2021/05/05 14:15:59;;;;;;;2.37;1.70;;;;;;;9.74;76.11;95454.26;1630672;86;21631;-80
2021/05/05 14:18:26;;;;;;;4.42;2.25;;;;;;;9.59;77.23;95454.61;1632146;86;21190;-80
2021/05/05 14:20:54;;;;;;;3.72;2.45;;;;;;;9.45;77.61;95484.53;1632184;86;21547;-80
2021/05/05 14:23:22;;;;;;;3.45;2.37;;;;;;;9.36;77.57;95490.82;1630845;86;21169;-80
2021/05/05 14:25:49;;;;;;;2.87;1.80;;;;;;;9.32;78.32;95499.89;1633020;86;21166;-80
2021/05/05 14:28:17;;;;;;;3.72;2.25;;;;;;;9.33;78.63;95501.45;1634591;86;21150;-80
2021/05/05 14:30:45;;;;;;;3.40;2.20;;;;;;;9.33;78.51;95498.81;1631856;86;21126;-80
2021/05/05 14:33:12;;;;;;;4.20;2.10;;;;;;;9.35;78.85;95494.55;1628687;86;21200;-80
2021/05/05 14:35:39;;;;;;;4.42;2.10;;;;;;;9.33;78.91;95491.42;1623492;87;21165;-80
2021/05/05 14:38:08;;;;;;;3.37;2.05;;;;;;;9.34;78.89;95503.02;1618434;87;21151;-80
2021/05/05 14:40:37;;;;;;;4.50;2.00;;;;;;;9.34;78.61;95496.95;1622065;87;21525;-80
2021/05/05 14:43:10;;;;;;;3.08;2.05;;;;;;;9.35;78.66;95505.91;1638521;86;21591;-80
2021/05/05 14:45:50;;;;;;;5.58;3.08;;;;;;;9.40;78.08;95503.14;1630900;86;21146;-79
2021/05/05 14:48:20;;;;;;;2.90;2.20;;;;;;;9.46;77.53;95502.52;1632687;86;21537;-79
2021/05/05 14:50:48;;;;;;;3.35;1.67;;;;;;;9.60;77.42;95497.19;1635790;86;21535;-79
2021/05/05 14:53:18;;;;;;;3.67;1.27;;;;;;;9.58;77.69;95496.70;1630245;86;21534;-80
2021/05/05 14:55:47;;;;;;;2.85;1.50;;;;;;;9.55;78.21;95496.73;1630977;86;21144;-80
2021/05/05 14:58:18;;;;;;;3.17;1.15;;;;;;;9.51;78.58;95489.95;1634800;86;21699;-79
2021/05/05 15:00:45;;;;;;;3.17;1.77;;;;;;;9.49;79.00;95481.53;1631567;86;21138;-80
2021/05/05 15:03:14;;;;;;;1.82;1.50;;;;;;;9.38;79.13;95480.17;1636670;86;21217;-80
2021/05/05 15:05:42;;;;;;;2.90;1.65;;;;;;;9.32;79.17;95477.41;1606423;89;21535;-80
2021/05/05 15:08:11;;;;;;;1.90;1.15;;;;;;;9.30;79.00;95482.22;1630892;88;21550;-80
2021/05/05 15:13:47;;;;;;;2.60;1.10;;;;;;;9.41;78.99;95480.12;1559634;91;21185;-80
2021/05/05 15:19:44;;;;;;;1.65;1.02;;;;;;;9.52;78.62;95486.76;1643763;87;21205;-80
2021/05/05 15:36:10;;;;;;;2.58;2.05;;;;;;;9.38;78.14;95501.88;1628180;88;21547;-80
2021/05/05 15:38:42;;;;;;;4.62;2.08;;;;;;;9.29;78.67;95507.11;1626269;88;21222;-80
2021/05/05 15:41:13;;;;;;;;;;;;;;;9.27;78.33;95495.23;1627719;88;21636;-79
2021/05/05 15:46:50;;;;;;;3.47;2.20;;;;;;;9.30;79.31;95513.17;1614183;88;21289;-79
2021/05/05 15:49:06;;;;;;;2.77;1.72;;;;;;;9.23;79.37;95524.14;1622213;88;21201;-80
2021/05/05 15:51:33;;;;;;;3.72;2.40;;;;;;;9.18;79.69;95511.81;1629392;88;21218;-79
2021/05/05 15:54:01;;;;;;;3.05;2.00;;;;;;;9.17;78.91;95517.41;1629533;87;21726;-79
2021/05/05 15:56:30;;;;;;;2.52;1.27;;;;;;;9.17;79.09;95517.41;1605128;89;21243;-79
2021/05/05 15:58:59;;;;;;;1.07;0.62;;;;;;;9.11;78.01;95525.17;1629675;88;21190;-79
2021/05/05 16:01:36;;;;;;;2.02;1.10;;;;;;;9.01;78.02;95524.86;1630149;88;21521;-80
2021/05/05 16:04:19;;;;;;;1.65;1.10;;;;;;;8.93;77.96;95521.02;1626515;88;21639;-79
2021/05/05 16:12:27;;;;;;;1.37;1.05;;;;;;;8.80;78.46;95532.91;1625742;88;21224;-81
2021/05/05 16:15:01;;;;;;;1.82;1.10;;;;;;;8.79;78.84;95535.31;1618425;88;21155;-81
2021/05/05 16:17:20;;;;;;;1.70;1.30;;;;;;;8.74;78.50;95530.91;1625479;88;21116;-81
2021/05/05 16:19:53;;;;;;;1.02;0.78;;;;;;;8.73;78.87;95517.99;1626643;88;21163;-81
2021/05/05 16:22:22;;;;;;;3.00;1.05;;;;;;;8.67;78.62;95518.61;1615915;88;21155;-81
2021/05/05 16:45:18;;;;;;;1.45;1.22;;;;;;;8.34;78.63;95558.81;1540877;91;21168;-81
2021/05/05 16:53:30;;;;;;;1.70;1.50;;;;;;;8.21;77.93;95555.02;1612988;88;21153;-81
2021/05/05 16:56:06;;;;;;;3.87;1.70;;;;;;;8.17;77.35;95564.59;1622837;88;21157;-80
2021/05/05 16:58:40;;;;;;;3.75;0.95;;;;;;;8.15;77.01;95568.03;1624887;88;21177;-80
2021/05/05 17:01:20;;;;;;;1.75;1.10;;;;;;;8.14;76.35;95567.00;1623094;88;21571;-80
2021/05/05 17:09:23;;;;;;;2.67;1.10;;;;;;;7.95;74.51;95565.71;1617419;88;21193;-81
2021/05/05 17:11:41;;;;;;;3.30;1.12;;;;;;;7.91;73.66;95597.17;1616118;88;21161;-81
2021/05/05 17:14:09;;;;;;;2.85;0.82;;;;;;;7.85;73.83;95596.98;1617528;88;21150;-81
2021/05/05 17:16:36;;;;;;;1.65;0.98;;;;;;;7.74;74.07;95588.95;1617510;88;21544;-81
2021/05/05 17:19:10;;;;;;;1.98;1.10;;;;;;;7.65;72.83;95599.91;1617468;88;21210;-81
2021/05/05 17:21:35;;;;;;;2.15;1.30;;;;;;;7.61;72.92;95594.42;1616734;88;21145;-81
2021/05/05 17:24:04;;;;;;;3.70;1.65;;;;;;;7.64;73.17;95597.02;1617603;88;21210;-81
2021/05/05 17:26:35;;;;;;;3.67;1.45;;;;;;;7.58;73.46;95596.28;1617440;88;21154;-80
2021/05/05 17:29:16;;;;;;;2.62;1.75;;;;;;;7.51;73.91;95597.71;1617298;88;21162;-80
2021/05/05 17:45:35;;;;;;;2.83;1.30;;;;;;;7.45;72.30;95617.53;1619835;88;21155;-80
2021/05/05 17:48:25;;;;;;;2.02;1.17;;;;;;;7.46;72.34;95627.58;1617512;88;21165;-80
2021/05/05 18:10:34;;;;;;;4.08;2.45;;;;;;;7.26;73.16;95566.63;1630253;88;21218;-81